Time;durP1;ratioP1;P1;durP2;ratioP2;P2;SDS_P1;SDS_P2;PMS_P1;PMS_P2;Temp;Humidity;BMP_temperature;BMP_pressure;BME280_temperature;BME280_humidity;BME280_pressure;Samples;Min_cycle;Max_cycle;Signal;HPM_P1;HPM_P2
2022/01/09 00:00:25;;;;;;;38.40;20.95;;;;;;;;;;4998199;28;20026;-78
2022/01/09 00:02:52;;;;;;;28.13;17.42;;;;;;;;;;4995454;28;20022;-76
2022/01/09 00:05:17;;;;;;;31.98;18.33;;;;;;;;;;4997530;28;20076;-78
2022/01/09 00:07:43;;;;;;;30.70;19.40;;;;;;;;;;4997381;28;20032;-76
2022/01/09 00:10:09;;;;;;;32.42;19.92;;;;;;;;;;4997152;28;20033;-79
2022/01/09 00:12:34;;;;;;;23.27;15.85;;;;;;;;;;4996113;28;20034;-76
2022/01/09 00:15:00;;;;;;;25.58;14.82;;;;;;;;;;4997025;28;20073;-78
2022/01/09 00:17:25;;;;;;;29.02;16.98;;;;;;;;;;4995460;28;20036;-78
2022/01/09 00:19:50;;;;;;;22.92;14.80;;;;;;;;;;4998109;28;20076;-78
2022/01/09 00:22:19;;;;;;;25.98;16.23;;;;;;;;;;4995351;28;20026;-78
2022/01/09 00:24:44;;;;;;;25.05;14.27;;;;;;;;;;5011854;28;20057;-78
2022/01/09 00:27:10;;;;;;;20.38;13.98;;;;;;;;;;4995441;28;20057;-77
2022/01/09 00:29:35;;;;;;;26.30;15.02;;;;;;;;;;4996785;28;20076;-78
2022/01/09 00:32:00;;;;;;;22.60;13.98;;;;;;;;;;4996188;28;20029;-77
2022/01/09 00:34:26;;;;;;;24.50;14.48;;;;;;;;;;4996707;28;20449;-78
2022/01/09 00:36:51;;;;;;;35.20;19.10;;;;;;;;;;4995747;28;20029;-77
2022/01/09 00:39:16;;;;;;;42.83;22.75;;;;;;;;;;4994979;28;20026;-78
2022/01/09 00:41:42;;;;;;;39.70;22.92;;;;;;;;;;4995060;28;20026;-78
2022/01/09 00:44:07;;;;;;;34.22;19.40;;;;;;;;;;4997255;28;20373;-78
2022/01/09 00:46:35;;;;;;;28.63;14.95;;;;;;;;;;4994726;28;20480;-77
2022/01/09 00:49:02;;;;;;;23.73;14.93;;;;;;;;;;4995618;28;20029;-78
2022/01/09 00:51:27;;;;;;;27.27;14.35;;;;;;;;;;4994376;28;20750;-78
2022/01/09 00:53:53;;;;;;;23.05;14.30;;;;;;;;;;4996109;28;20033;-78
2022/01/09 00:56:18;;;;;;;20.77;12.95;;;;;;;;;;4995018;28;20468;-78
2022/01/09 00:58:43;;;;;;;23.10;12.90;;;;;;;;;;4994871;28;20044;-78
2022/01/09 01:01:09;;;;;;;30.52;19.33;;;;;;;;;;4996299;28;20108;-78
2022/01/09 01:03:34;;;;;;;30.95;16.33;;;;;;;;;;4994856;28;20033;-78
2022/01/09 01:05:59;;;;;;;29.75;15.68;;;;;;;;;;4994711;28;20022;-78
2022/01/09 01:08:25;;;;;;;23.33;12.90;;;;;;;;;;4994964;28;20025;-78
2022/01/09 01:10:50;;;;;;;22.95;10.38;;;;;;;;;;4995944;28;20030;-78
2022/01/09 01:13:16;;;;;;;20.58;10.95;;;;;;;;;;4995903;28;20030;-78
2022/01/09 01:15:41;;;;;;;16.23;9.85;;;;;;;;;;4994645;28;20125;-78
2022/01/09 01:18:06;;;;;;;17.00;9.73;;;;;;;;;;4995860;28;20028;-78
2022/01/09 01:20:32;;;;;;;20.70;12.13;;;;;;;;;;5010706;28;20026;-78
2022/01/09 01:22:58;;;;;;;19.02;12.57;;;;;;;;;;4994478;28;20117;-78
2022/01/09 01:25:24;;;;;;;18.73;12.20;;;;;;;;;;4997416;28;20018;-78
2022/01/09 01:27:49;;;;;;;24.52;13.95;;;;;;;;;;4995989;28;20022;-78
2022/01/09 01:30:15;;;;;;;27.27;14.20;;;;;;;;;;4996181;28;20033;-78
2022/01/09 01:32:41;;;;;;;21.60;12.73;;;;;;;;;;4994651;28;20033;-78
2022/01/09 01:35:07;;;;;;;27.50;15.25;;;;;;;;;;4995842;28;20025;-78
2022/01/09 01:37:32;;;;;;;31.48;17.48;;;;;;;;;;4995940;28;20079;-79
2022/01/09 01:39:57;;;;;;;33.72;15.82;;;;;;;;;;4995890;28;20037;-78
2022/01/09 01:42:23;;;;;;;26.02;14.93;;;;;;;;;;4993416;28;20477;-78
2022/01/09 01:44:49;;;;;;;23.85;12.98;;;;;;;;;;4994752;28;20128;-78
2022/01/09 01:47:15;;;;;;;21.10;13.68;;;;;;;;;;4995287;28;20139;-78
2022/01/09 01:49:41;;;;;;;19.48;11.80;;;;;;;;;;4995882;28;20026;-78
2022/01/09 01:52:07;;;;;;;18.35;10.90;;;;;;;;;;4996412;28;20030;-79
2022/01/09 01:54:33;;;;;;;18.05;11.35;;;;;;;;;;4993730;28;20168;-79
2022/01/09 01:56:58;;;;;;;18.05;11.10;;;;;;;;;;4993184;28;20124;-79
2022/01/09 01:59:24;;;;;;;18.55;11.43;;;;;;;;;;4995685;28;20026;-79
2022/01/09 02:01:49;;;;;;;15.45;10.32;;;;;;;;;;4993849;28;20034;-78
2022/01/09 02:04:15;;;;;;;17.08;10.68;;;;;;;;;;4993809;28;20029;-79
2022/01/09 02:06:40;;;;;;;19.27;11.20;;;;;;;;;;4995476;28;20537;-79
2022/01/09 02:09:05;;;;;;;18.17;11.48;;;;;;;;;;4994525;28;20429;-79
2022/01/09 02:11:31;;;;;;;18.52;10.90;;;;;;;;;;4994123;28;20030;-78
2022/01/09 02:13:57;;;;;;;21.92;13.18;;;;;;;;;;4995735;28;20029;-79
2022/01/09 02:16:23;;;;;;;18.95;12.00;;;;;;;;;;4993537;28;20022;-80
2022/01/09 02:18:48;;;;;;;18.60;11.73;;;;;;;;;;4994146;28;20037;-80
2022/01/09 02:21:15;;;;;;;15.98;11.52;;;;;;;;;;4995506;28;20033;-79
2022/01/09 02:23:45;;;;;;;16.08;10.95;;;;;;;;;;4993796;28;20364;-79
2022/01/09 02:26:11;;;;;;;16.05;9.75;;;;;;;;;;4993592;28;20025;-81
2022/01/09 02:28:36;;;;;;;12.55;10.07;;;;;;;;;;5010185;28;20030;-80
2022/01/09 02:31:01;;;;;;;13.52;9.43;;;;;;;;;;4993412;28;20747;-79
2022/01/09 02:33:27;;;;;;;15.55;9.60;;;;;;;;;;4993926;28;20030;-79
2022/01/09 02:35:52;;;;;;;13.63;10.43;;;;;;;;;;4995478;28;20026;-79
2022/01/09 02:38:19;;;;;;;19.55;13.07;;;;;;;;;;4993159;28;20033;-79
2022/01/09 02:40:48;;;;;;;16.02;10.68;;;;;;;;;;4995763;28;20026;-80
2022/01/09 02:43:14;;;;;;;15.93;10.57;;;;;;;;;;4992737;28;20132;-80
2022/01/09 02:45:40;;;;;;;13.57;9.25;;;;;;;;;;4994647;28;20461;-78
2022/01/09 02:48:05;;;;;;;12.13;7.35;;;;;;;;;;4993775;28;20121;-79
2022/01/09 02:50:36;;;;;;;12.00;8.18;;;;;;;;;;4993259;28;20113;-80
2022/01/09 02:53:12;;;;;;;12.70;8.85;;;;;;;;;;4993694;28;20115;-79
2022/01/09 02:55:38;;;;;;;13.55;8.25;;;;;;;;;;4994793;28;20037;-79
2022/01/09 02:58:03;;;;;;;14.80;9.52;;;;;;;;;;4994802;28;20021;-78
2022/01/09 03:00:30;;;;;;;15.52;9.48;;;;;;;;;;4993406;28;20088;-80
2022/01/09 03:02:56;;;;;;;10.60;6.70;;;;;;;;;;4993282;28;20018;-80
2022/01/09 03:05:22;;;;;;;13.57;8.68;;;;;;;;;;4994194;28;20093;-79
2022/01/09 03:07:47;;;;;;;12.65;8.20;;;;;;;;;;4994286;28;20025;-79
2022/01/09 03:10:15;;;;;;;14.15;9.10;;;;;;;;;;4997254;28;20033;-78
2022/01/09 03:12:40;;;;;;;12.52;8.95;;;;;;;;;;4998288;28;20457;-79
2022/01/09 03:15:07;;;;;;;15.90;8.75;;;;;;;;;;4998937;28;20080;-80
2022/01/09 03:17:32;;;;;;;12.65;8.15;;;;;;;;;;4998955;28;20026;-80
2022/01/09 03:19:58;;;;;;;11.80;7.97;;;;;;;;;;4996933;28;20156;-80
2022/01/09 03:22:23;;;;;;;10.80;8.02;;;;;;;;;;4996785;28;20022;-80
2022/01/09 03:24:49;;;;;;;8.40;6.65;;;;;;;;;;4996791;28;20034;-79
2022/01/09 03:27:15;;;;;;;8.95;6.45;;;;;;;;;;4996426;28;20440;-80
2022/01/09 03:29:40;;;;;;;10.93;6.60;;;;;;;;;;4996829;28;20416;-79
2022/01/09 03:32:06;;;;;;;8.20;6.45;;;;;;;;;;4997468;28;20025;-78
2022/01/09 03:34:32;;;;;;;6.72;5.50;;;;;;;;;;4996616;28;20136;-80
2022/01/09 03:36:57;;;;;;;7.57;6.47;;;;;;;;;;4996835;28;20061;-80
2022/01/09 03:39:22;;;;;;;9.32;6.57;;;;;;;;;;4996207;28;20077;-80
2022/01/09 03:41:48;;;;;;;13.93;7.05;;;;;;;;;;4996329;28;20049;-79
2022/01/09 03:44:13;;;;;;;14.65;10.07;;;;;;;;;;4998588;28;20470;-79
2022/01/09 03:46:38;;;;;;;14.32;9.38;;;;;;;;;;4997690;28;20049;-80
2022/01/09 03:49:04;;;;;;;22.02;15.15;;;;;;;;;;4996183;28;20025;-80
2022/01/09 03:51:34;;;;;;;25.17;16.65;;;;;;;;;;4996415;28;20040;-79
2022/01/09 03:53:59;;;;;;;18.95;13.18;;;;;;;;;;4995795;28;20093;-79
2022/01/09 03:56:25;;;;;;;13.13;10.35;;;;;;;;;;4996538;28;20780;-80
2022/01/09 03:58:50;;;;;;;11.85;8.18;;;;;;;;;;4997642;28;20036;-80
2022/01/09 04:01:16;;;;;;;7.00;5.53;;;;;;;;;;4995602;28;20480;-79
2022/01/09 04:03:41;;;;;;;6.65;5.95;;;;;;;;;;4995613;28;20095;-79
2022/01/09 04:06:06;;;;;;;7.53;5.25;;;;;;;;;;4997950;28;20051;-79
2022/01/09 04:08:34;;;;;;;6.80;5.32;;;;;;;;;;4996001;28;20029;-79
2022/01/09 04:11:00;;;;;;;7.70;6.07;;;;;;;;;;4996006;28;20040;-79
2022/01/09 04:13:25;;;;;;;7.97;5.85;;;;;;;;;;4995919;28;20562;-80
2022/01/09 04:15:51;;;;;;;13.10;8.07;;;;;;;;;;4995441;28;20034;-79
2022/01/09 04:18:17;;;;;;;12.35;8.40;;;;;;;;;;4995790;28;20033;-79
2022/01/09 04:20:42;;;;;;;12.43;8.50;;;;;;;;;;4994969;28;20481;-79
2022/01/09 04:23:08;;;;;;;10.93;8.45;;;;;;;;;;4995210;28;20060;-80
2022/01/09 04:25:33;;;;;;;10.63;7.05;;;;;;;;;;4997148;28;20101;-79
2022/01/09 04:27:58;;;;;;;9.68;7.45;;;;;;;;;;4996888;28;20032;-80
2022/01/09 04:30:24;;;;;;;8.35;7.22;;;;;;;;;;4995532;28;20055;-79
2022/01/09 04:32:49;;;;;;;12.27;9.00;;;;;;;;;;4995905;28;20113;-78
2022/01/09 04:35:15;;;;;;;11.98;8.98;;;;;;;;;;4997007;28;20053;-80
2022/01/09 04:37:41;;;;;;;15.23;10.50;;;;;;;;;;4995406;28;20057;-79
2022/01/09 04:40:09;;;;;;;15.35;11.00;;;;;;;;;;4995259;28;20537;-80
2022/01/09 04:42:47;;;;;;;17.02;11.93;;;;;;;;;;4996087;28;20552;-79
2022/01/09 04:45:14;;;;;;;13.15;9.73;;;;;;;;;;4995191;28;20057;-79
2022/01/09 04:47:45;;;;;;;10.77;7.88;;;;;;;;;;4995288;28;20022;-79
2022/01/09 04:50:16;;;;;;;11.73;8.40;;;;;;;;;;4997111;28;20014;-80
2022/01/09 04:52:42;;;;;;;14.18;9.63;;;;;;;;;;4995376;28;20037;-79
2022/01/09 04:55:07;;;;;;;14.95;10.88;;;;;;;;;;4995272;28;20072;-79
2022/01/09 04:57:33;;;;;;;27.90;18.75;;;;;;;;;;4996147;28;20029;-79
2022/01/09 04:59:59;;;;;;;30.77;19.83;;;;;;;;;;4996619;28;20030;-79
2022/01/09 05:02:24;;;;;;;29.83;20.40;;;;;;;;;;4994945;28;20032;-79
2022/01/09 05:04:49;;;;;;;25.52;16.63;;;;;;;;;;4996058;28;20462;-80
2022/01/09 05:07:15;;;;;;;24.40;16.02;;;;;;;;;;4995273;28;21025;-79
2022/01/09 05:09:40;;;;;;;22.98;16.33;;;;;;;;;;4994997;28;20438;-79
2022/01/09 05:12:05;;;;;;;21.50;15.68;;;;;;;;;;4994688;28;20030;-79
2022/01/09 05:14:31;;;;;;;20.52;14.85;;;;;;;;;;4994693;28;20421;-79
2022/01/09 05:16:56;;;;;;;16.75;10.85;;;;;;;;;;4996596;28;20457;-79
2022/01/09 05:19:28;;;;;;;22.88;14.93;;;;;;;;;;4994311;28;20025;-79
2022/01/09 05:21:54;;;;;;;27.50;19.30;;;;;;;;;;4995917;28;20049;-79
2022/01/09 05:24:19;;;;;;;19.95;13.38;;;;;;;;;;4994240;28;20057;-80
2022/01/09 05:26:45;;;;;;;30.80;20.67;;;;;;;;;;4995975;28;20068;-79
2022/01/09 05:29:10;;;;;;;22.60;15.75;;;;;;;;;;4994668;28;20029;-79
2022/01/09 05:31:36;;;;;;;24.23;15.18;;;;;;;;;;4994149;28;20076;-79
2022/01/09 05:34:01;;;;;;;36.17;23.48;;;;;;;;;;4994402;28;20544;-80
2022/01/09 05:36:26;;;;;;;23.40;16.40;;;;;;;;;;4994346;28;20036;-80
2022/01/09 05:38:52;;;;;;;22.40;15.80;;;;;;;;;;4994455;28;20528;-80
2022/01/09 05:41:17;;;;;;;31.52;22.08;;;;;;;;;;4996454;28;20036;-80
2022/01/09 05:43:42;;;;;;;28.45;19.17;;;;;;;;;;4996797;28;20046;-79
2022/01/09 05:46:08;;;;;;;62.33;48.45;;;;;;;;;;4993845;28;20133;-79
2022/01/09 05:48:33;;;;;;;43.13;35.85;;;;;;;;;;4995391;28;20025;-79
2022/01/09 05:50:58;;;;;;;42.92;32.42;;;;;;;;;;4994180;28;20030;-79
2022/01/09 05:53:24;;;;;;;30.98;23.50;;;;;;;;;;4993844;28;20469;-79
2022/01/09 05:55:49;;;;;;;27.27;19.70;;;;;;;;;;4996130;28;20044;-80
2022/01/09 05:58:15;;;;;;;22.33;15.32;;;;;;;;;;4995913;28;20022;-81
2022/01/09 06:00:40;;;;;;;19.50;13.30;;;;;;;;;;4993794;28;20102;-80
2022/01/09 06:03:05;;;;;;;103.05;57.78;;;;;;;;;;4994087;28;20034;-80
2022/01/09 06:05:31;;;;;;;229.48;115.93;;;;;;;;;;4995242;28;20044;-80
2022/01/09 06:07:56;;;;;;;229.77;125.82;;;;;;;;;;4993855;28;20025;-79
2022/01/09 06:10:21;;;;;;;78.97;44.60;;;;;;;;;;4995279;28;20022;-79
2022/01/09 06:12:47;;;;;;;767.00;514.92;;;;;;;;;;4994008;28;20026;-80
2022/01/09 06:15:12;;;;;;;951.25;613.63;;;;;;;;;;4995702;28;20022;-79
2022/01/09 06:17:38;;;;;;;268.85;117.43;;;;;;;;;;4993527;28;20030;-79
2022/01/09 06:20:04;;;;;;;70.07;33.97;;;;;;;;;;4993736;28;20048;-78
2022/01/09 06:22:29;;;;;;;23.30;13.85;;;;;;;;;;4993717;28;20460;-79
2022/01/09 06:24:54;;;;;;;16.92;10.88;;;;;;;;;;4993808;28;20037;-80
2022/01/09 06:27:21;;;;;;;15.73;10.63;;;;;;;;;;4993556;28;20053;-80
2022/01/09 06:29:46;;;;;;;17.08;13.32;;;;;;;;;;5010003;28;20453;-80
2022/01/09 06:32:12;;;;;;;24.17;18.60;;;;;;;;;;4995436;28;20123;-80
2022/01/09 06:34:37;;;;;;;39.60;28.27;;;;;;;;;;4995454;28;20030;-80
2022/01/09 06:37:03;;;;;;;37.05;26.45;;;;;;;;;;4993778;28;20608;-80
2022/01/09 06:39:28;;;;;;;45.83;32.70;;;;;;;;;;4994146;28;20025;-79
2022/01/09 06:41:54;;;;;;;42.20;28.88;;;;;;;;;;4992986;28;20082;-79
2022/01/09 06:44:19;;;;;;;51.92;36.17;;;;;;;;;;4996796;28;20022;-79
2022/01/09 06:46:44;;;;;;;36.95;26.67;;;;;;;;;;4998452;28;20480;-79
2022/01/09 06:49:10;;;;;;;26.13;17.17;;;;;;;;;;4997257;28;20452;-79
2022/01/09 06:51:35;;;;;;;44.63;28.95;;;;;;;;;;4998718;28;20029;-80
2022/01/09 06:54:01;;;;;;;33.30;21.00;;;;;;;;;;4997687;28;20029;-79
2022/01/09 06:56:26;;;;;;;29.15;18.85;;;;;;;;;;4997410;28;20025;-79
2022/01/09 06:58:52;;;;;;;28.80;18.73;;;;;;;;;;4997067;28;20037;-79
2022/01/09 07:01:17;;;;;;;36.83;24.88;;;;;;;;;;4999706;28;20104;-80
2022/01/09 07:03:42;;;;;;;55.53;36.22;;;;;;;;;;4998470;28;20412;-80
2022/01/09 07:06:08;;;;;;;74.22;42.70;;;;;;;;;;4999985;28;20775;-79
2022/01/09 07:08:34;;;;;;;65.90;39.42;;;;;;;;;;4997144;28;20462;-79
2022/01/09 07:11:00;;;;;;;62.72;41.67;;;;;;;;;;4996846;28;20030;-79
2022/01/09 07:13:25;;;;;;;74.85;41.97;;;;;;;;;;4996680;28;20084;-79
2022/01/09 07:15:51;;;;;;;85.85;46.83;;;;;;;;;;4999429;28;20022;-80
2022/01/09 07:18:16;;;;;;;85.68;47.05;;;;;;;;;;4998417;28;20026;-79
2022/01/09 07:20:41;;;;;;;74.18;46.92;;;;;;;;;;4997132;28;20026;-80
2022/01/09 07:23:07;;;;;;;87.07;50.90;;;;;;;;;;4998080;28;20410;-80
2022/01/09 07:25:32;;;;;;;137.23;89.75;;;;;;;;;;4996731;28;20061;-79
2022/01/09 07:27:58;;;;;;;91.88;59.13;;;;;;;;;;4996826;28;20022;-80
2022/01/09 07:30:26;;;;;;;65.78;44.60;;;;;;;;;;4998634;28;20469;-79
2022/01/09 07:32:51;;;;;;;79.57;50.67;;;;;;;;;;4996745;28;20041;-79
2022/01/09 07:35:17;;;;;;;123.25;78.70;;;;;;;;;;4996630;28;20095;-79
2022/01/09 07:37:42;;;;;;;67.65;42.88;;;;;;;;;;4996688;28;20026;-80
2022/01/09 07:40:08;;;;;;;39.92;25.58;;;;;;;;;;4998204;28;20705;-79
2022/01/09 07:42:33;;;;;;;29.95;19.40;;;;;;;;;;4998831;28;20046;-79
2022/01/09 07:44:59;;;;;;;25.15;18.02;;;;;;;;;;4996086;28;20030;-80
2022/01/09 07:47:25;;;;;;;30.10;19.63;;;;;;;;;;4996103;28;20096;-79
2022/01/09 07:49:50;;;;;;;26.40;18.52;;;;;;;;;;4996615;28;20045;-79
2022/01/09 07:52:15;;;;;;;23.63;16.67;;;;;;;;;;4996373;28;20030;-79
2022/01/09 07:54:41;;;;;;;33.67;22.45;;;;;;;;;;4994882;28;20025;-79
2022/01/09 07:57:06;;;;;;;45.72;28.25;;;;;;;;;;4997559;28;20022;-79
2022/01/09 07:59:31;;;;;;;55.10;34.53;;;;;;;;;;4996118;28;20116;-78
2022/01/09 08:01:57;;;;;;;61.30;39.70;;;;;;;;;;4996210;28;20025;-79
2022/01/09 08:04:22;;;;;;;37.25;23.55;;;;;;;;;;4996031;28;20036;-79
2022/01/09 08:06:48;;;;;;;39.67;27.13;;;;;;;;;;4997787;28;20175;-80
2022/01/09 08:09:13;;;;;;;61.58;40.75;;;;;;;;;;4997670;28;20458;-79
2022/01/09 08:11:38;;;;;;;55.50;40.47;;;;;;;;;;4996047;28;20036;-79
2022/01/09 08:14:04;;;;;;;53.75;40.20;;;;;;;;;;4995335;28;20030;-79
2022/01/09 08:16:29;;;;;;;40.55;27.45;;;;;;;;;;4997128;28;20079;-79
2022/01/09 08:18:54;;;;;;;31.70;21.50;;;;;;;;;;4997647;28;20460;-79
2022/01/09 08:21:20;;;;;;;26.92;19.98;;;;;;;;;;4995329;28;20511;-79
2022/01/09 08:23:49;;;;;;;28.77;21.52;;;;;;;;;;4995636;28;20026;-79
2022/01/09 08:26:15;;;;;;;37.15;29.20;;;;;;;;;;5011830;28;20030;-79
2022/01/09 08:28:44;;;;;;;30.75;23.80;;;;;;;;;;4995591;28;20052;-78
2022/01/09 08:31:09;;;;;;;31.80;22.02;;;;;;;;;;4997263;28;20026;-79
2022/01/09 08:33:35;;;;;;;35.28;27.08;;;;;;;;;;4995307;28;20447;-78
2022/01/09 08:36:00;;;;;;;27.08;21.83;;;;;;;;;;4997342;28;20021;-79
2022/01/09 08:38:26;;;;;;;16.23;13.75;;;;;;;;;;4997588;28;20065;-79
2022/01/09 08:40:51;;;;;;;17.00;13.95;;;;;;;;;;4995177;28;20030;-78
2022/01/09 08:43:16;;;;;;;79.13;46.80;;;;;;;;;;4995259;28;20052;-78
2022/01/09 08:45:42;;;;;;;66.63;39.50;;;;;;;;;;4995435;28;20115;-79
2022/01/09 08:48:07;;;;;;;56.13;35.50;;;;;;;;;;4994783;28;20033;-79
2022/01/09 08:50:33;;;;;;;41.17;27.92;;;;;;;;;;4996353;28;20041;-79
2022/01/09 08:52:58;;;;;;;44.22;30.63;;;;;;;;;;4995259;28;20033;-79
2022/01/09 08:55:24;;;;;;;33.58;22.05;;;;;;;;;;5011214;28;20022;-79
2022/01/09 08:57:50;;;;;;;33.00;22.25;;;;;;;;;;4996428;28;20148;-79
2022/01/09 09:00:16;;;;;;;69.28;41.67;;;;;;;;;;4995073;28;20029;-79
2022/01/09 09:02:41;;;;;;;31.50;21.20;;;;;;;;;;4994549;28;20034;-79
2022/01/09 09:05:07;;;;;;;78.88;51.03;;;;;;;;;;4996406;28;20050;-79
2022/01/09 09:07:32;;;;;;;97.53;61.85;;;;;;;;;;4996077;28;20029;-78
2022/01/09 09:10:03;;;;;;;78.75;48.45;;;;;;;;;;4994705;28;20532;-78
2022/01/09 09:12:29;;;;;;;62.13;35.88;;;;;;;;;;4996486;28;20080;-78
2022/01/09 09:14:55;;;;;;;123.47;71.15;;;;;;;;;;4994950;28;20026;-79
2022/01/09 09:17:20;;;;;;;125.97;75.38;;;;;;;;;;4995890;28;20434;-79
2022/01/09 09:19:45;;;;;;;61.75;45.72;;;;;;;;;;4996466;28;20563;-78
2022/01/09 09:22:11;;;;;;;54.38;38.50;;;;;;;;;;4994346;28;20041;-79
2022/01/09 09:24:37;;;;;;;42.97;33.92;;;;;;;;;;4994246;28;20437;-79
2022/01/09 09:27:03;;;;;;;43.90;31.85;;;;;;;;;;4995806;28;20022;-78
2022/01/09 09:29:28;;;;;;;63.67;37.17;;;;;;;;;;4995685;28;20036;-78
2022/01/09 09:31:53;;;;;;;92.45;57.00;;;;;;;;;;4996647;28;20034;-78
2022/01/09 09:34:19;;;;;;;61.72;37.88;;;;;;;;;;4994727;28;20504;-78
2022/01/09 09:36:44;;;;;;;49.20;31.10;;;;;;;;;;4993944;28;20112;-79
2022/01/09 09:39:09;;;;;;;57.58;38.08;;;;;;;;;;4994147;28;20026;-78
2022/01/09 09:41:35;;;;;;;61.65;41.63;;;;;;;;;;4993836;28;20464;-78
2022/01/09 09:44:02;;;;;;;21.30;15.10;;;;;;;;;;4995397;28;20080;-78
2022/01/09 09:46:27;;;;;;;18.23;14.10;;;;;;;;;;4996129;28;20033;-78
2022/01/09 09:48:54;;;;;;;38.60;27.65;;;;;;;;;;4994315;28;20022;-78
2022/01/09 09:51:19;;;;;;;39.72;31.20;;;;;;;;;;4995160;28;20113;-78
2022/01/09 09:53:45;;;;;;;33.05;25.20;;;;;;;;;;4994027;28;20140;-78
2022/01/09 09:56:10;;;;;;;23.58;18.08;;;;;;;;;;4995816;28;20026;-78
2022/01/09 09:58:40;;;;;;;21.88;15.80;;;;;;;;;;4993779;28;20025;-79
2022/01/09 10:01:05;;;;;;;;;;;;;;;;;;4994397;28;20486;-78
2022/01/09 10:03:30;;;;;;;;;;;;;;;;;;4995878;28;19933;-78
2022/01/09 10:05:56;;;;;;;;;;;;;;;;;;4996519;28;19914;-78
2022/01/09 10:08:21;;;;;;;;;;;;;;;;;;5010830;28;19909;-78
2022/01/09 10:10:46;;;;;;;;;;;;;;;;;;5010672;28;19921;-78
2022/01/09 10:13:11;;;;;;;;;;;;;;;;;;4995666;28;19919;-78
2022/01/09 10:15:37;;;;;;;;;;;;;;;;;;4995620;28;19910;-78
2022/01/09 10:18:02;;;;;;;;;;;;;;;;;;4995025;28;19909;-77
2022/01/09 10:20:27;;;;;;;;;;;;;;;;;;5010551;28;19909;-77
2022/01/09 10:22:53;;;;;;;;;;;;;;;;;;4996129;28;19909;-77
2022/01/09 10:25:18;;;;;;;;;;;;;;;;;;4995526;28;19910;-77
2022/01/09 10:27:44;;;;;;;;;;;;;;;;;;4995712;28;19968;-77
2022/01/09 10:30:09;;;;;;;;;;;;;;;;;;5011489;28;20015;-77
2022/01/09 10:32:34;;;;;;;;;;;;;;;;;;4994748;28;19948;-77
2022/01/09 10:34:59;;;;;;;;;;;;;;;;;;4994081;28;19949;-79
2022/01/09 10:37:24;;;;;;;;;;;;;;;;;;4995859;28;19909;-76
2022/01/09 10:39:50;;;;;;;;;;;;;;;;;;4994295;28;20348;-76
2022/01/09 10:42:15;;;;;;;;;;;;;;;;;;4994042;28;19953;-78
2022/01/09 10:44:43;;;;;;;;;;;;;;;;;;4995472;28;20364;-77
2022/01/09 10:47:12;;;;;;;;;;;;;;;;;;4996539;28;19909;-78
2022/01/09 10:49:37;;;;;;;;;;;;;;;;;;4993405;28;19913;-78
2022/01/09 10:52:02;;;;;;;;;;;;;;;;;;4995957;28;19920;-80
2022/01/09 10:54:28;;;;;;;;;;;;;;;;;;4993978;28;20028;-78
2022/01/09 10:56:56;;;;;;;;;;;;;;;;;;4994196;28;20817;-77
2022/01/09 10:59:32;;;;;;;;;;;;;;;;;;4995338;28;20364;-78
2022/01/09 11:02:03;;;;;;;;;;;;;;;;;;4994943;28;19909;-77
2022/01/09 11:04:28;;;;;;;;;;;;;;;;;;4995646;28;20001;-77
2022/01/09 11:07:00;;;;;;;;;;;;;;;;;;4994305;28;20347;-77
2022/01/09 11:09:27;;;;;;;;;;;;;;;;;;4995991;28;19910;-78
2022/01/09 11:11:52;;;;;;;;;;;;;;;;;;4997010;28;19909;-78
2022/01/09 11:14:19;;;;;;;;;;;;;;;;;;4995418;28;19909;-77
2022/01/09 11:16:51;;;;;;;;;;;;;;;;;;4993682;28;19910;-77
2022/01/09 11:19:16;;;;;;;;;;;;;;;;;;4996269;28;20360;-79
2022/01/09 11:21:41;;;;;;;;;;;;;;;;;;4993954;28;19912;-77
2022/01/09 11:24:06;;;;;;;;;;;;;;;;;;4996327;28;19909;-77
2022/01/09 11:26:31;;;;;;;;;;;;;;;;;;4995174;28;19906;-77
2022/01/09 11:28:57;;;;;;;;;;;;;;;;;;4995871;28;20379;-77
2022/01/09 11:31:23;;;;;;;;;;;;;;;;;;4997216;28;20357;-78
2022/01/09 11:33:48;;;;;;;;;;;;;;;;;;4998662;28;19909;-78
2022/01/09 11:36:14;;;;;;;;;;;;;;;;;;4998528;28;20388;-80
2022/01/09 11:38:41;;;;;;;;;;;;;;;;;;4998766;28;19924;-78
2022/01/09 11:41:06;;;;;;;;;;;;;;;;;;4998373;28;19956;-78
2022/01/09 11:43:31;;;;;;;;;;;;;;;;;;4996233;28;19956;-79
2022/01/09 11:45:56;;;;;;;;;;;;;;;;;;4998455;28;19968;-79
2022/01/09 11:48:21;;;;;;;;;;;;;;;;;;4996412;28;19916;-77
2022/01/09 11:50:47;;;;;;;;;;;;;;;;;;4997612;28;19944;-77
2022/01/09 11:53:12;;;;;;;;;;;;;;;;;;4997297;28;19917;-78
2022/01/09 11:55:37;;;;;;;;;;;;;;;;;;4998605;28;19916;-79
2022/01/09 11:58:03;;;;;;;;;;;;;;;;;;4997213;28;20254;-78
2022/01/09 12:00:29;;;;;;;;;;;;;;;;;;4997550;28;19992;-79
2022/01/09 12:02:54;;;;;;;;;;;;;;;;;;4997115;28;20392;-78
2022/01/09 12:05:23;;;;;;;;;;;;;;;;;;5005948;28;19916;-78
2022/01/09 12:07:51;;;;;;;;;;;;;;;;;;4999002;28;20272;-78
2022/01/09 12:10:16;;;;;;;;;;;;;;;;;;4997622;28;20010;-78
2022/01/09 12:12:41;;;;;;;;;;;;;;;;;;4996076;28;19913;-78
2022/01/09 12:15:08;;;;;;;;;;;;;;;;;;4994873;28;19992;-78
2022/01/09 12:17:34;;;;;;;;;;;;;;;;;;4995061;28;19912;-78
2022/01/09 12:20:08;;;;;;;;;;;;;;;;;;4995171;28;19909;-78
2022/01/09 12:22:33;;;;;;;;;;;;;;;;;;4994922;28;20459;-78
2022/01/09 12:24:58;;;;;;;;;;;;;;;;;;4996886;28;19999;-78
2022/01/09 12:27:24;;;;;;;;;;;;;;;;;;4995833;28;19916;-78
2022/01/09 12:29:49;;;;;;;;;;;;;;;;;;4998713;28;19940;-78
2022/01/09 12:32:15;;;;;;;;;;;;;;;;;;4996732;28;19909;-78
2022/01/09 12:34:40;;;;;;;;;;;;;;;;;;4996159;28;19948;-78
2022/01/09 12:37:05;;;;;;;;;;;;;;;;;;4995979;28;19917;-77
2022/01/09 12:39:30;;;;;;;;;;;;;;;;;;4995610;28;19909;-78
2022/01/09 12:41:56;;;;;;;;;;;;;;;;;;4996432;28;20354;-78
2022/01/09 12:44:21;;;;;;;;;;;;;;;;;;4997090;28;19979;-78
2022/01/09 12:46:48;;;;;;;;;;;;;;;;;;4997782;28;20329;-79
2022/01/09 12:49:15;;;;;;;;;;;;;;;;;;4995508;28;19912;-78
2022/01/09 12:51:40;;;;;;;;;;;;;;;;;;4995367;28;19925;-78
2022/01/09 12:54:06;;;;;;;;;;;;;;;;;;4995342;28;19913;-78
2022/01/09 12:56:31;;;;;;;;;;;;;;;;;;4995239;28;20319;-77
2022/01/09 12:58:56;;;;;;;;;;;;;;;;;;4997315;28;19920;-77
2022/01/09 13:01:21;;;;;;;;;;;;;;;;;;4996590;28;19910;-78
2022/01/09 13:03:47;;;;;;;;;;;;;;;;;;4995120;28;19921;-78
2022/01/09 13:06:12;;;;;;;;;;;;;;;;;;4996996;28;19916;-79
2022/01/09 13:08:40;;;;;;;;;;;;;;;;;;4996576;28;19996;-78
2022/01/09 13:11:05;;;;;;;;;;;;;;;;;;4994873;28;19979;-77
2022/01/09 13:13:30;;;;;;;;;;;;;;;;;;4994983;28;20010;-77
2022/01/09 13:15:56;;;;;;;;;;;;;;;;;;4994964;28;20368;-77
2022/01/09 13:18:21;;;;;;;;;;;;;;;;;;4996389;28;19910;-78
2022/01/09 13:20:46;;;;;;;;;;;;;;;;;;4997587;28;20026;-78
2022/01/09 13:23:11;;;;;;;;;;;;;;;;;;4996302;28;19910;-77
2022/01/09 13:25:36;;;;;;;;;;;;;;;;;;4996942;28;19910;-77
2022/01/09 13:28:01;;;;;;;;;;;;;;;;;;4995589;28;19909;-77
2022/01/09 13:30:27;;;;;;;;;;;;;;;;;;4995835;28;19968;-77
2022/01/09 13:32:52;;;;;;;;;;;;;;;;;;4997496;28;19913;-77
2022/01/09 13:35:17;;;;;;;;;;;;;;;;;;4995874;28;19916;-79
2022/01/09 13:37:42;;;;;;;;;;;;;;;;;;4996219;28;19906;-78
2022/01/09 13:40:10;;;;;;;;;;;;;;;;;;4996702;28;19933;-76
2022/01/09 13:42:36;;;;;;;;;;;;;;;;;;4995748;28;19960;-77
2022/01/09 13:45:01;;;;;;;;;;;;;;;;;;4996634;28;20018;-76
2022/01/09 13:47:27;;;;;;;;;;;;;;;;;;4995853;28;19909;-77
2022/01/09 13:49:52;;;;;;;;;;;;;;;;;;4995957;28;19912;-77
2022/01/09 13:52:18;;;;;;;;;;;;;;;;;;4995936;28;19948;-78
2022/01/09 13:54:49;;;;;;;;;;;;;;;;;;4996512;28;19913;-77
2022/01/09 13:57:35;;;;;;;;;;;;;;;;;;4997459;28;19996;-76
2022/01/09 14:00:01;;;;;;;;;;;;;;;;;;4997753;28;19914;-76
2022/01/09 14:02:26;;;;;;;;;;;;;;;;;;4996050;28;20019;-76
2022/01/09 14:05:10;;;;;;;;;;;;;;;;;;4997243;28;20428;-80
2022/01/09 14:07:37;;;;;;;;;;;;;;;;;;4992175;28;19913;-78
2022/01/09 14:10:05;;;;;;;;;;;;;;;;;;4996546;28;19939;-79
2022/01/09 14:12:31;;;;;;;;;;;;;;;;;;4995561;28;20368;-79
2022/01/09 14:14:56;;;;;;;;;;;;;;;;;;4996849;28;19913;-79
2022/01/09 14:17:37;;;;;;;;;;;;;;;;;;4995428;28;20000;-78
2022/01/09 14:28:27;;;;;;;;;;;;;;;;;;4987713;28;19953;-77
2022/01/09 14:30:53;;;;;;;;;;;;;;;;;;4996622;28;19917;-77
2022/01/09 14:33:18;;;;;;;;;;;;;;;;;;4995871;28;20365;-78
2022/01/09 14:35:44;;;;;;;;;;;;;;;;;;4995722;28;20376;-78
2022/01/09 14:38:09;;;;;;;;;;;;;;;;;;4995090;28;20004;-78
2022/01/09 14:52:01;;;;;;;;;;;;;;;;;;4982939;28;19924;-79
2022/01/09 14:54:36;;;;;;;;;;;;;;;;;;4976164;28;19921;-77
2022/01/09 14:59:55;;;;;;;;;;;;;;;;;;4937121;29;19910;-79
2022/01/09 15:10:39;;;;;;;;;;;;;;;;;;4980386;28;19916;-79
2022/01/09 15:13:04;;;;;;;;;;;;;;;;;;4963296;28;20031;-80
2022/01/09 15:15:30;;;;;;;;;;;;;;;;;;4962302;28;19962;-78
2022/01/09 15:17:55;;;;;;;;;;;;;;;;;;4961768;28;19914;-79
2022/01/09 15:20:29;;;;;;;;;;;;;;;;;;4998011;28;20007;-79
2022/01/09 15:22:54;;;;;;;;;;;;;;;;;;4998324;28;19905;-80
2022/01/09 15:25:19;;;;;;;;;;;;;;;;;;4998541;28;19913;-79